createdAt,value
2016-06-25T00:00:22.487Z,1008.93
2016-06-25T00:01:22.490Z,1008.93
2016-06-25T00:02:22.469Z,1008.9
2016-06-25T00:03:22.462Z,1008.89
2016-06-25T00:04:22.452Z,1008.81
2016-06-25T00:05:22.638Z,1008.77
2016-06-25T00:06:22.434Z,1008.79
2016-06-25T00:07:22.423Z,1008.75
2016-06-25T00:08:22.410Z,1008.76
2016-06-25T00:09:22.405Z,1008.76
2016-06-25T00:10:22.402Z,1008.76
2016-06-25T00:11:22.390Z,1008.71
2016-06-25T00:12:22.375Z,1008.65
2016-06-25T00:13:22.370Z,1008.6
2016-06-25T00:14:22.358Z,1008.54
2016-06-25T00:15:22.352Z,1008.47
2016-06-25T00:16:22.346Z,1008.45
2016-06-25T00:17:22.331Z,1008.5
2016-06-25T00:18:22.322Z,1008.55
2016-06-25T00:19:22.320Z,1008.55
2016-06-25T00:20:22.304Z,1008.63
2016-06-25T00:21:22.299Z,1008.68
2016-06-25T00:22:22.283Z,1008.7
2016-06-25T00:23:22.279Z,1008.68
2016-06-25T00:24:22.270Z,1008.64
2016-06-25T00:25:22.263Z,1008.57
2016-06-25T00:26:22.249Z,1008.47
2016-06-25T00:27:22.250Z,1008.38
2016-06-25T00:28:22.232Z,1008.35
2016-06-25T00:29:22.219Z,1008.37
2016-06-25T00:30:22.211Z,1008.36
2016-06-25T00:31:22.205Z,1008.46
2016-06-25T00:32:22.194Z,1008.5
2016-06-25T00:33:22.193Z,1008.5
2016-06-25T00:34:22.175Z,1008.49
2016-06-25T00:35:22.191Z,1008.48
2016-06-25T00:36:22.161Z,1008.46
2016-06-25T00:37:22.160Z,1008.39
2016-06-25T00:38:22.142Z,1008.37
2016-06-25T00:39:22.146Z,1008.33
2016-06-25T00:40:22.122Z,1008.33
2016-06-25T00:41:22.110Z,1008.3
2016-06-25T00:42:22.105Z,1008.35
2016-06-25T00:43:22.093Z,1008.36
2016-06-25T00:44:22.085Z,1008.36
2016-06-25T00:45:22.075Z,1008.29
2016-06-25T00:46:22.071Z,1008.28
2016-06-25T00:47:22.058Z,1008.21
2016-06-25T00:48:22.048Z,1008.19
2016-06-25T00:49:22.039Z,1008.14
2016-06-25T00:50:22.026Z,1008.07
2016-06-25T00:51:22.019Z,1008.04
2016-06-25T00:52:22.008Z,1008.03
2016-06-25T00:53:22.006Z,1007.96
2016-06-25T00:54:21.991Z,1007.97
2016-06-25T00:55:21.981Z,1008
2016-06-25T00:56:21.984Z,1007.99
2016-06-25T00:57:21.963Z,1008.02
2016-06-25T00:58:21.958Z,1008.01
2016-06-25T00:59:21.950Z,1007.98
2016-06-25T01:00:21.944Z,1007.98
2016-06-25T01:01:21.927Z,1007.92
2016-06-25T01:02:21.922Z,1007.9
2016-06-25T01:03:21.915Z,1007.92
2016-06-25T01:04:21.903Z,1007.87
2016-06-25T01:05:21.895Z,1007.87
2016-06-25T01:06:21.881Z,1007.88
2016-06-25T01:07:21.875Z,1007.86
2016-06-25T01:08:21.865Z,1007.87
2016-06-25T01:09:21.857Z,1007.84
2016-06-25T01:10:21.848Z,1007.83
2016-06-25T01:11:21.839Z,1007.82
2016-06-25T01:12:21.830Z,1007.8
2016-06-25T01:13:21.818Z,1007.77
2016-06-25T01:14:21.812Z,1007.75
2016-06-25T01:15:21.800Z,1007.79
2016-06-25T01:16:21.793Z,1007.76
2016-06-25T01:17:21.778Z,1007.77
2016-06-25T01:18:21.770Z,1007.76
2016-06-25T01:19:21.779Z,1007.79
2016-06-25T01:20:21.751Z,1007.82
2016-06-25T01:21:21.754Z,1007.84
2016-06-25T01:22:21.736Z,1007.82
2016-06-25T01:23:21.734Z,1007.84
2016-06-25T01:24:21.716Z,1007.83
2016-06-25T01:25:21.706Z,1007.85
2016-06-25T01:26:21.700Z,1007.87
2016-06-25T01:27:21.693Z,1007.83
2016-06-25T01:28:21.682Z,1007.81
2016-06-25T01:29:21.670Z,1007.82
2016-06-25T01:30:21.661Z,1007.77
2016-06-25T01:31:21.650Z,1007.76
2016-06-25T01:32:21.645Z,1007.71
2016-06-25T01:33:21.631Z,1007.73
2016-06-25T01:34:21.627Z,1007.76
2016-06-25T01:35:21.615Z,1007.77
2016-06-25T01:36:21.607Z,1007.78
2016-06-25T01:37:21.625Z,1007.8
2016-06-25T01:38:21.587Z,1007.84
2016-06-25T01:39:21.581Z,1007.74
2016-06-25T01:40:21.571Z,1007.72
2016-06-25T01:41:21.561Z,1007.71
2016-06-25T01:42:21.549Z,1007.74
2016-06-25T01:43:21.542Z,1007.76
2016-06-25T01:44:21.530Z,1007.81
2016-06-25T01:45:21.522Z,1007.81
2016-06-25T01:46:21.516Z,1007.89
2016-06-25T01:47:21.501Z,1007.88
2016-06-25T01:48:21.493Z,1007.89
2016-06-25T01:49:21.485Z,1007.86
2016-06-25T01:50:21.471Z,1007.88
2016-06-25T01:51:21.466Z,1007.85
2016-06-25T01:52:21.458Z,1007.81
2016-06-25T01:53:21.446Z,1007.79
2016-06-25T01:54:21.454Z,1007.72
2016-06-25T01:55:21.427Z,1007.69
2016-06-25T01:56:21.416Z,1007.69
2016-06-25T01:57:21.410Z,1007.66
2016-06-25T01:58:21.401Z,1007.62
2016-06-25T01:59:21.388Z,1007.56
2016-06-25T02:00:21.388Z,1007.58
2016-06-25T02:01:21.376Z,1007.56
2016-06-25T02:02:21.364Z,1007.57
2016-06-25T02:03:21.363Z,1007.61
2016-06-25T02:04:21.342Z,1007.64
2016-06-25T02:05:21.533Z,1007.69
2016-06-25T02:06:21.324Z,1007.77
2016-06-25T02:07:21.321Z,1007.78
2016-06-25T02:08:21.301Z,1007.73
2016-06-25T02:09:21.300Z,1007.77
2016-06-25T02:10:21.283Z,1007.68
2016-06-25T02:11:21.278Z,1007.68
2016-06-25T02:12:21.265Z,1007.6
2016-06-25T02:13:21.259Z,1007.53
2016-06-25T02:14:21.252Z,1007.53
2016-06-25T02:15:21.246Z,1007.57
2016-06-25T02:16:21.230Z,1007.58
2016-06-25T02:17:21.219Z,1007.59
2016-06-25T02:18:21.209Z,1007.61
2016-06-25T02:19:21.196Z,1007.64
2016-06-25T02:20:21.207Z,1007.65
2016-06-25T02:21:21.185Z,1007.69
2016-06-25T02:22:21.174Z,1007.67
2016-06-25T02:23:21.163Z,1007.72
2016-06-25T02:24:21.156Z,1007.71
2016-06-25T02:25:21.143Z,1007.72
2016-06-25T02:26:21.130Z,1007.77
2016-06-25T02:27:21.124Z,1007.78
2016-06-25T02:28:21.119Z,1007.82
2016-06-25T02:29:21.107Z,1007.81
2016-06-25T02:30:21.094Z,1007.82
2016-06-25T02:31:21.087Z,1007.85
2016-06-25T02:32:21.082Z,1007.86
2016-06-25T02:33:21.072Z,1007.83
2016-06-25T02:34:21.063Z,1007.83
2016-06-25T02:35:21.047Z,1007.84
2016-06-25T02:36:21.043Z,1007.81
2016-06-25T02:37:21.034Z,1007.8
2016-06-25T02:38:21.023Z,1007.75
2016-06-25T02:39:21.015Z,1007.73
2016-06-25T02:40:21.002Z,1007.77
2016-06-25T02:41:20.996Z,1007.71
2016-06-25T02:42:20.984Z,1007.71
2016-06-25T02:43:20.975Z,1007.73
2016-06-25T02:44:20.966Z,1007.72
2016-06-25T02:45:20.961Z,1007.75
2016-06-25T02:46:20.947Z,1007.72
2016-06-25T02:47:20.944Z,1007.7
2016-06-25T02:48:20.923Z,1007.66
2016-06-25T02:49:20.917Z,1007.64
2016-06-25T02:50:20.906Z,1007.63
2016-06-25T02:51:20.895Z,1007.66
2016-06-25T02:52:20.889Z,1007.63
2016-06-25T02:53:20.875Z,1007.71
2016-06-25T02:54:20.867Z,1007.7
2016-06-25T02:55:20.858Z,1007.73
2016-06-25T02:56:20.853Z,1007.73
2016-06-25T02:57:20.841Z,1007.71
2016-06-25T02:58:20.830Z,1007.72
2016-06-25T02:59:20.817Z,1007.67
2016-06-25T03:00:20.810Z,1007.6
2016-06-25T03:01:20.831Z,1007.59
2016-06-25T03:02:20.791Z,1007.59
2016-06-25T03:03:20.783Z,1007.5
2016-06-25T03:04:20.769Z,1007.5
2016-06-25T03:05:20.768Z,1007.48
2016-06-25T03:06:20.752Z,1007.5
2016-06-25T03:07:20.744Z,1007.53
2016-06-25T03:08:20.732Z,1007.53
2016-06-25T03:09:20.727Z,1007.49
2016-06-25T03:10:20.718Z,1007.5
2016-06-25T03:11:20.706Z,1007.45
2016-06-25T03:12:20.697Z,1007.46
2016-06-25T03:13:20.687Z,1007.43
2016-06-25T03:14:20.678Z,1007.41
2016-06-25T03:15:20.731Z,1007.45
2016-06-25T03:16:20.657Z,1007.41
2016-06-25T03:17:20.648Z,1007.42
2016-06-25T03:18:20.638Z,1007.4
2016-06-25T03:19:20.639Z,1007.38
2016-06-25T03:20:20.678Z,1007.35
2016-06-25T03:21:20.668Z,1007.3
2016-06-25T03:22:20.659Z,1007.29
2016-06-25T03:23:20.590Z,1007.24
2016-06-25T03:24:20.588Z,1007.21
2016-06-25T03:25:20.569Z,1007.2
2016-06-25T03:26:20.557Z,1007.18
2016-06-25T03:27:20.554Z,1007.15
2016-06-25T03:28:20.546Z,1007.09
2016-06-25T03:29:20.531Z,1007.11
2016-06-25T03:30:20.519Z,1007.11
2016-06-25T03:31:20.511Z,1007.09
2016-06-25T03:32:20.503Z,1007.09
2016-06-25T03:33:20.494Z,1007.06
2016-06-25T03:34:20.485Z,1007.06
2016-06-25T03:35:20.473Z,1007.06
2016-06-25T03:36:20.467Z,1007.1
2016-06-25T03:37:20.453Z,1007.07
2016-06-25T03:38:20.447Z,1007.07
2016-06-25T03:39:20.435Z,1007.07
2016-06-25T03:40:20.424Z,1007.1
2016-06-25T03:41:20.414Z,1007.05
2016-06-25T03:42:20.402Z,1007.06
2016-06-25T03:43:20.395Z,1007.08
2016-06-25T03:44:20.390Z,1007.02
2016-06-25T03:45:20.372Z,1007.06
2016-06-25T03:46:20.370Z,1007.04
2016-06-25T03:47:20.355Z,1007.04
2016-06-25T03:48:20.343Z,1007.06
2016-06-25T03:49:20.337Z,1007.07
2016-06-25T03:50:20.330Z,1007.1
2016-06-25T03:51:20.318Z,1007.13
2016-06-25T03:52:20.303Z,1007.12
2016-06-25T03:53:20.292Z,1007.14
2016-06-25T03:54:20.283Z,1007.15
2016-06-25T03:55:20.272Z,1007.16
2016-06-25T03:56:20.279Z,1007.17
2016-06-25T03:57:20.263Z,1007.19
2016-06-25T03:58:20.249Z,1007.19
2016-06-25T03:59:20.242Z,1007.2
2016-06-25T04:00:20.224Z,1007.18
2016-06-25T04:01:20.217Z,1007.2
2016-06-25T04:02:20.209Z,1007.18
2016-06-25T04:03:20.199Z,1007.19
2016-06-25T04:04:20.187Z,1007.19
2016-06-25T04:05:20.379Z,1007.19
2016-06-25T04:06:20.169Z,1007.17
2016-06-25T04:07:20.161Z,1007.14
2016-06-25T04:08:20.150Z,1007.14
2016-06-25T04:09:20.144Z,1007.1
2016-06-25T04:10:20.132Z,1007.03
2016-06-25T04:11:20.127Z,1007.01
2016-06-25T04:12:20.109Z,1006.97
2016-06-25T04:13:20.103Z,1006.95
2016-06-25T04:14:20.095Z,1006.92
2016-06-25T04:15:20.080Z,1006.89
2016-06-25T04:16:20.070Z,1006.9
2016-06-25T04:17:20.058Z,1006.89
2016-06-25T04:18:20.051Z,1006.9
2016-06-25T04:19:20.042Z,1006.88
2016-06-25T04:20:20.030Z,1006.84
2016-06-25T04:21:20.024Z,1006.82
2016-06-25T04:22:20.018Z,1006.8
2016-06-25T04:23:20.005Z,1006.82
2016-06-25T04:24:19.994Z,1006.83
2016-06-25T04:25:19.983Z,1006.82
2016-06-25T04:26:19.974Z,1006.87
2016-06-25T04:27:19.963Z,1006.84
2016-06-25T04:28:19.952Z,1006.82
2016-06-25T04:29:19.945Z,1006.82
2016-06-25T04:30:19.934Z,1006.8
2016-06-25T04:31:19.923Z,1006.78
2016-06-25T04:32:19.917Z,1006.83
2016-06-25T04:33:19.910Z,1006.88
2016-06-25T04:34:19.897Z,1006.88
2016-06-25T04:35:19.887Z,1006.93
2016-06-25T04:36:19.875Z,1006.96
2016-06-25T04:37:19.868Z,1007
2016-06-25T04:38:19.858Z,1007.05
2016-06-25T04:39:19.844Z,1007.1
2016-06-25T04:40:19.841Z,1007.1
2016-06-25T04:41:19.829Z,1007.06
2016-06-25T04:42:19.818Z,1007.11
2016-06-25T04:43:19.809Z,1007.09
2016-06-25T04:44:19.806Z,1007.07
2016-06-25T04:45:19.786Z,1007.05
2016-06-25T04:46:19.782Z,1007.06
2016-06-25T04:47:19.766Z,1007.08
2016-06-25T04:48:19.760Z,1007.05
2016-06-25T04:49:19.745Z,1007.1
2016-06-25T04:50:19.736Z,1007.08
2016-06-25T04:51:19.728Z,1007.07
2016-06-25T04:52:19.720Z,1007.09
2016-06-25T04:53:19.719Z,1007.1
2016-06-25T04:54:19.703Z,1007.08
2016-06-25T04:55:19.692Z,1007.04
2016-06-25T04:56:19.681Z,1007.06
2016-06-25T04:57:19.689Z,1007.03
2016-06-25T04:58:19.660Z,1007.06
2016-06-25T04:59:19.652Z,1007.04
2016-06-25T05:00:19.638Z,1007.01
2016-06-25T05:01:19.631Z,1007.01
2016-06-25T05:02:19.622Z,1006.96
2016-06-25T05:03:19.615Z,1006.98
2016-06-25T05:04:19.604Z,1007.01
2016-06-25T05:05:19.591Z,1007
2016-06-25T05:06:19.587Z,1006.99
2016-06-25T05:07:19.576Z,1007.01
2016-06-25T05:08:19.562Z,1006.99
2016-06-25T05:09:19.555Z,1006.96
2016-06-25T05:10:19.546Z,1006.95
2016-06-25T05:11:19.538Z,1006.91
2016-06-25T05:12:19.528Z,1006.88
2016-06-25T05:13:19.528Z,1006.9
2016-06-25T05:14:19.504Z,1006.89
2016-06-25T05:15:19.497Z,1006.84
2016-06-25T05:16:19.490Z,1006.87
2016-06-25T05:17:19.475Z,1006.88
2016-06-25T05:18:19.467Z,1006.84
2016-06-25T05:19:19.460Z,1006.82
2016-06-25T05:20:19.451Z,1006.8
2016-06-25T05:21:19.441Z,1006.81
2016-06-25T05:22:19.429Z,1006.81
2016-06-25T05:23:19.418Z,1006.87
2016-06-25T05:24:19.409Z,1006.84
2016-06-25T05:25:19.400Z,1006.87
2016-06-25T05:26:19.388Z,1006.85
2016-06-25T05:27:19.378Z,1006.87
2016-06-25T05:28:19.371Z,1006.81
2016-06-25T05:29:19.362Z,1006.8
2016-06-25T05:30:19.349Z,1006.8
2016-06-25T05:31:19.342Z,1006.75
2016-06-25T05:32:19.334Z,1006.73
2016-06-25T05:33:19.328Z,1006.7
2016-06-25T05:34:19.325Z,1006.69
2016-06-25T05:35:19.310Z,1006.66
2016-06-25T05:36:19.298Z,1006.67
2016-06-25T05:37:19.283Z,1006.68
2016-06-25T05:38:19.274Z,1006.7
2016-06-25T05:39:19.269Z,1006.71
2016-06-25T05:40:19.252Z,1006.74
2016-06-25T05:41:19.245Z,1006.72
2016-06-25T05:42:19.234Z,1006.75
2016-06-25T05:43:19.226Z,1006.75
2016-06-25T05:44:19.213Z,1006.77
2016-06-25T05:45:19.220Z,1006.82
2016-06-25T05:46:19.197Z,1006.82
2016-06-25T05:47:19.188Z,1006.81
2016-06-25T05:48:19.177Z,1006.82
2016-06-25T05:49:19.165Z,1006.81
2016-06-25T05:50:19.158Z,1006.84
2016-06-25T05:51:19.153Z,1006.86
2016-06-25T05:52:19.140Z,1006.89
2016-06-25T05:53:19.137Z,1006.92
2016-06-25T05:54:19.120Z,1006.95
2016-06-25T05:55:19.109Z,1006.96
2016-06-25T05:56:19.102Z,1006.98
2016-06-25T05:57:19.093Z,1006.98
2016-06-25T05:58:19.079Z,1006.98
2016-06-25T05:59:19.071Z,1006.98
2016-06-25T06:00:19.065Z,1007.02
2016-06-25T06:01:19.054Z,1007.01
2016-06-25T06:02:19.046Z,1007.02
2016-06-25T06:03:19.045Z,1007.05
2016-06-25T06:04:19.019Z,1007.1
2016-06-25T06:05:19.216Z,1007.08
2016-06-25T06:06:19.005Z,1007.14
2016-06-25T06:07:18.998Z,1007.17
2016-06-25T06:08:18.985Z,1007.14
2016-06-25T06:09:18.981Z,1007.12
2016-06-25T06:10:18.965Z,1007.12
2016-06-25T06:11:18.962Z,1007.1
2016-06-25T06:12:18.944Z,1007.1
2016-06-25T06:13:18.931Z,1007.1
2016-06-25T06:14:18.929Z,1007.11
2016-06-25T06:15:18.916Z,1007.05
2016-06-25T06:16:18.916Z,1007.09
2016-06-25T06:17:18.907Z,1007.07
2016-06-25T06:18:18.889Z,1007.07
2016-06-25T06:19:18.880Z,1007.08
2016-06-25T06:20:18.874Z,1007.07
2016-06-25T06:21:18.867Z,1007.07
2016-06-25T06:22:18.848Z,1007.1
2016-06-25T06:23:18.841Z,1007.13
2016-06-25T06:24:18.828Z,1007.17
2016-06-25T06:25:18.824Z,1007.18
2016-06-25T06:26:18.809Z,1007.16
2016-06-25T06:27:18.802Z,1007.1
2016-06-25T06:28:18.792Z,1007.05
2016-06-25T06:29:18.785Z,1007
2016-06-25T06:30:19.379Z,1007
2016-06-25T06:31:18.768Z,1006.98
2016-06-25T06:32:18.753Z,1006.94
2016-06-25T06:33:18.745Z,1006.87
2016-06-25T06:34:18.734Z,1006.84
2016-06-25T06:35:18.727Z,1006.78
2016-06-25T06:36:18.713Z,1006.76
2016-06-25T06:37:18.703Z,1006.69
2016-06-25T06:38:18.695Z,1006.68
2016-06-25T06:39:18.706Z,1006.64
2016-06-25T06:40:18.686Z,1006.58
2016-06-25T06:41:18.662Z,1006.48
2016-06-25T06:42:18.656Z,1006.43
2016-06-25T06:43:18.651Z,1006.36
2016-06-25T06:44:18.633Z,1006.28
2016-06-25T06:45:18.623Z,1006.15
2016-06-25T06:46:18.614Z,1006.11
2016-06-25T06:47:18.611Z,1006.06
2016-06-25T06:48:18.604Z,1006.01
2016-06-25T06:49:18.584Z,1006.02
2016-06-25T06:50:18.578Z,1006.05
2016-06-25T06:51:18.566Z,1006.05
2016-06-25T06:52:18.553Z,1006.09
2016-06-25T06:53:18.554Z,1006.09
2016-06-25T06:54:18.542Z,1006.04
2016-06-25T06:55:18.524Z,1006.01
2016-06-25T06:56:18.517Z,1006.01
2016-06-25T06:57:18.507Z,1005.95
2016-06-25T06:58:18.579Z,1005.9
2016-06-25T06:59:18.490Z,1005.84
2016-06-25T07:00:18.472Z,1005.83
2016-06-25T07:01:18.466Z,1005.74
2016-06-25T07:02:18.457Z,1005.7
2016-06-25T07:03:18.446Z,1005.69
2016-06-25T07:04:18.438Z,1005.65
2016-06-25T07:05:18.426Z,1005.63
2016-06-25T07:06:18.423Z,1005.61
2016-06-25T07:07:18.406Z,1005.63
2016-06-25T07:08:18.409Z,1005.63
2016-06-25T07:09:18.383Z,1005.71
2016-06-25T07:10:18.382Z,1005.71
2016-06-25T07:11:18.373Z,1005.78
2016-06-25T07:12:18.359Z,1005.82
2016-06-25T07:13:18.346Z,1005.86
2016-06-25T07:14:18.335Z,1005.87
2016-06-25T07:15:18.323Z,1005.89
2016-06-25T07:16:18.321Z,1005.93
2016-06-25T07:17:18.304Z,1005.96
2016-06-25T07:18:18.296Z,1005.98
2016-06-25T07:19:18.294Z,1005.96
2016-06-25T07:20:18.273Z,1005.97
2016-06-25T07:21:18.269Z,1005.97
2016-06-25T07:22:18.254Z,1005.97
2016-06-25T07:23:18.252Z,1005.99
2016-06-25T07:24:18.234Z,1006
2016-06-25T07:25:18.230Z,1006.01
2016-06-25T07:26:18.220Z,1006.01
2016-06-25T07:27:18.255Z,1005.98
2016-06-25T07:28:18.197Z,1005.99
2016-06-25T07:29:18.186Z,1006.01
2016-06-25T07:30:18.183Z,1005.98
2016-06-25T07:31:18.173Z,1005.97
2016-06-25T07:32:18.165Z,1005.94
2016-06-25T07:33:18.151Z,1005.96
2016-06-25T07:34:18.139Z,1005.96
2016-06-25T07:35:18.131Z,1005.92
2016-06-25T07:36:18.143Z,1005.9
2016-06-25T07:37:18.110Z,1005.88
2016-06-25T07:38:18.117Z,1005.86
2016-06-25T07:39:18.088Z,1005.84
2016-06-25T07:40:18.082Z,1005.83
2016-06-25T07:41:18.081Z,1005.78
2016-06-25T07:42:18.062Z,1005.7
2016-06-25T07:43:18.057Z,1005.65
2016-06-25T07:44:18.039Z,1005.62
2016-06-25T07:45:18.037Z,1005.63
2016-06-25T07:46:18.021Z,1005.64
2016-06-25T07:47:18.021Z,1005.65
2016-06-25T07:48:18.003Z,1005.65
2016-06-25T07:49:17.997Z,1005.62
2016-06-25T07:50:17.986Z,1005.62
2016-06-25T07:51:17.978Z,1005.57
2016-06-25T07:52:17.961Z,1005.56
2016-06-25T07:53:17.955Z,1005.55
2016-06-25T07:54:17.943Z,1005.51
2016-06-25T07:55:17.931Z,1005.48
2016-06-25T07:56:17.922Z,1005.5
2016-06-25T07:57:17.918Z,1005.51
2016-06-25T07:58:17.909Z,1005.55
2016-06-25T07:59:17.894Z,1005.59
2016-06-25T08:00:17.886Z,1005.68
2016-06-25T08:01:17.873Z,1005.72
2016-06-25T08:02:17.871Z,1005.84
2016-06-25T08:03:17.854Z,1005.89
2016-06-25T08:04:17.847Z,1005.96
2016-06-25T08:05:17.835Z,1006
2016-06-25T08:06:17.833Z,1006.06
2016-06-25T08:07:17.818Z,1006.03
2016-06-25T08:08:17.808Z,1005.97
2016-06-25T08:09:17.799Z,1005.94
2016-06-25T08:10:17.789Z,1005.85
2016-06-25T08:11:17.789Z,1005.78
2016-06-25T08:12:17.771Z,1005.78
2016-06-25T08:13:17.761Z,1005.76
2016-06-25T08:14:17.751Z,1005.79
2016-06-25T08:15:17.743Z,1005.82
2016-06-25T08:16:17.735Z,1005.85
2016-06-25T08:17:17.727Z,1005.82
2016-06-25T08:18:17.717Z,1005.82
2016-06-25T08:19:17.703Z,1005.8
2016-06-25T08:20:17.697Z,1005.74
2016-06-25T08:21:17.682Z,1005.71
2016-06-25T08:22:17.670Z,1005.67
2016-06-25T08:23:17.663Z,1005.64
2016-06-25T08:24:17.654Z,1005.65
2016-06-25T08:25:17.649Z,1005.64
2016-06-25T08:26:17.635Z,1005.66
2016-06-25T08:27:17.631Z,1005.65
2016-06-25T08:28:17.619Z,1005.69
2016-06-25T08:29:17.608Z,1005.67
2016-06-25T08:30:17.595Z,1005.71
2016-06-25T08:31:17.588Z,1005.72
2016-06-25T08:32:17.575Z,1005.71
2016-06-25T08:33:17.567Z,1005.74
2016-06-25T08:34:17.560Z,1005.69
2016-06-25T08:35:17.545Z,1005.77
2016-06-25T08:36:17.544Z,1005.77
2016-06-25T08:37:17.527Z,1005.72
2016-06-25T08:38:17.518Z,1005.69
2016-06-25T08:39:17.511Z,1005.71
2016-06-25T08:40:17.501Z,1005.7
2016-06-25T08:41:17.486Z,1005.69
2016-06-25T08:42:17.479Z,1005.66
2016-06-25T08:43:17.467Z,1005.7
2016-06-25T08:44:17.461Z,1005.66
2016-06-25T08:45:17.444Z,1005.66
2016-06-25T08:46:17.439Z,1005.65
2016-06-25T08:47:17.432Z,1005.62
2016-06-25T08:48:17.418Z,1005.59
2016-06-25T08:49:17.413Z,1005.62
2016-06-25T08:50:17.399Z,1005.64
2016-06-25T08:51:17.385Z,1005.65
2016-06-25T08:52:17.382Z,1005.67
2016-06-25T08:53:17.371Z,1005.75
2016-06-25T08:54:17.355Z,1005.76
2016-06-25T08:55:17.350Z,1005.81
2016-06-25T08:56:17.340Z,1005.85
2016-06-25T08:57:17.334Z,1005.89
2016-06-25T08:58:17.320Z,1005.89
2016-06-25T08:59:17.311Z,1005.9
2016-06-25T09:00:17.302Z,1005.9
2016-06-25T09:01:17.293Z,1005.87
2016-06-25T09:02:17.283Z,1005.9
2016-06-25T09:03:17.270Z,1005.93
2016-06-25T09:04:17.259Z,1005.95
2016-06-25T09:05:17.250Z,1005.95
2016-06-25T09:06:17.238Z,1005.95
2016-06-25T09:07:17.234Z,1005.99
2016-06-25T09:08:17.222Z,1006.01
2016-06-25T09:09:17.216Z,1006.02
2016-06-25T09:10:17.205Z,1006.01
2016-06-25T09:11:17.197Z,1006.04
2016-06-25T09:12:17.182Z,1006.06
2016-06-25T09:13:17.172Z,1006.08
2016-06-25T09:14:17.162Z,1006.06
2016-06-25T09:15:17.150Z,1006.03
2016-06-25T09:16:17.146Z,1006.02
2016-06-25T09:17:17.134Z,1005.98
2016-06-25T09:18:17.126Z,1005.99
2016-06-25T09:19:17.112Z,1006.02
2016-06-25T09:20:17.106Z,1006.01
2016-06-25T09:21:17.097Z,1005.96
2016-06-25T09:22:17.086Z,1005.97
2016-06-25T09:23:17.074Z,1005.95
2016-06-25T09:24:17.069Z,1005.91
2016-06-25T09:25:17.066Z,1005.91
2016-06-25T09:26:17.046Z,1005.87
2016-06-25T09:27:17.041Z,1005.89
2016-06-25T09:28:17.032Z,1005.88
2016-06-25T09:29:17.018Z,1005.88
2016-06-25T09:30:17.006Z,1005.89
2016-06-25T09:31:17.002Z,1005.88
2016-06-25T09:32:17.002Z,1005.91
2016-06-25T09:33:16.978Z,1005.89
2016-06-25T09:34:16.973Z,1005.84
2016-06-25T09:35:16.967Z,1005.83
2016-06-25T09:36:16.946Z,1005.84
2016-06-25T09:37:16.937Z,1005.85
2016-06-25T09:38:16.930Z,1005.82
2016-06-25T09:39:16.919Z,1005.78
2016-06-25T09:40:16.911Z,1005.76
2016-06-25T09:41:16.906Z,1005.81
2016-06-25T09:42:16.887Z,1005.76
2016-06-25T09:43:16.886Z,1005.76
2016-06-25T09:44:16.870Z,1005.76
2016-06-25T09:45:16.864Z,1005.76
2016-06-25T09:46:16.847Z,1005.81
2016-06-25T09:47:16.842Z,1005.78
2016-06-25T09:48:16.829Z,1005.74
2016-06-25T09:49:16.823Z,1005.76
2016-06-25T09:50:16.814Z,1005.76
2016-06-25T09:51:16.811Z,1005.78
2016-06-25T09:52:16.798Z,1005.77
2016-06-25T09:53:16.791Z,1005.82
2016-06-25T09:54:16.772Z,1005.79
2016-06-25T09:55:16.763Z,1005.79
2016-06-25T09:56:16.751Z,1005.83
2016-06-25T09:57:16.736Z,1005.8
2016-06-25T09:58:16.741Z,1005.79
2016-06-25T09:59:16.720Z,1005.79
2016-06-25T10:00:16.709Z,1005.82
2016-06-25T10:01:16.701Z,1005.79
2016-06-25T10:02:16.693Z,1005.77
2016-06-25T10:03:16.680Z,1005.8
2016-06-25T10:04:16.671Z,1005.8
2016-06-25T10:05:16.662Z,1005.81
2016-06-25T10:06:16.658Z,1005.79
2016-06-25T10:07:16.646Z,1005.8
2016-06-25T10:08:16.629Z,1005.81
2016-06-25T10:09:16.620Z,1005.79
2016-06-25T10:10:16.616Z,1005.77
2016-06-25T10:11:16.607Z,1005.8
2016-06-25T10:12:16.593Z,1005.77
2016-06-25T10:13:16.587Z,1005.76
2016-06-25T10:14:16.576Z,1005.75
2016-06-25T10:15:16.563Z,1005.76
2016-06-25T10:16:16.558Z,1005.79
2016-06-25T10:17:16.547Z,1005.75
2016-06-25T10:18:16.533Z,1005.77
2016-06-25T10:19:16.527Z,1005.82
2016-06-25T10:20:16.522Z,1005.78
2016-06-25T10:21:16.505Z,1005.74
2016-06-25T10:22:16.498Z,1005.78
2016-06-25T10:23:16.486Z,1005.75
2016-06-25T10:24:16.474Z,1005.77
2016-06-25T10:25:16.472Z,1005.79
2016-06-25T10:26:16.458Z,1005.77
2016-06-25T10:27:16.443Z,1005.8
2016-06-25T10:28:16.434Z,1005.78
2016-06-25T10:29:16.466Z,1005.8
2016-06-25T10:30:16.449Z,1005.83
2016-06-25T10:31:16.407Z,1005.82
2016-06-25T10:32:16.403Z,1005.83
2016-06-25T10:33:16.385Z,1005.85
2016-06-25T10:34:16.381Z,1005.83
2016-06-25T10:35:16.362Z,1005.86
2016-06-25T10:36:16.351Z,1005.88
2016-06-25T10:37:16.342Z,1005.86
2016-06-25T10:38:16.339Z,1005.87
2016-06-25T10:39:16.323Z,1005.84
2016-06-25T10:40:16.312Z,1005.86
2016-06-25T10:41:16.306Z,1005.79
2016-06-25T10:42:16.291Z,1005.8
2016-06-25T10:43:16.281Z,1005.81
2016-06-25T10:44:16.275Z,1005.77
2016-06-25T10:45:16.275Z,1005.74
2016-06-25T10:46:16.270Z,1005.73
2016-06-25T10:47:16.242Z,1005.75
2016-06-25T10:48:16.238Z,1005.76
2016-06-25T10:49:16.226Z,1005.75
2016-06-25T10:50:16.218Z,1005.77
2016-06-25T10:51:16.214Z,1005.74
2016-06-25T10:52:16.203Z,1005.74
2016-06-25T10:53:16.185Z,1005.73
2016-06-25T10:54:16.207Z,1005.75
2016-06-25T10:55:16.165Z,1005.74
2016-06-25T10:56:16.154Z,1005.71
2016-06-25T10:57:16.139Z,1005.72
2016-06-25T10:58:16.134Z,1005.72
2016-06-25T10:59:16.121Z,1005.71
2016-06-25T11:00:16.109Z,1005.71
2016-06-25T11:01:16.103Z,1005.69
2016-06-25T11:02:16.090Z,1005.74
2016-06-25T11:03:16.082Z,1005.74
2016-06-25T11:04:16.070Z,1005.75
2016-06-25T11:05:16.061Z,1005.76
2016-06-25T11:06:16.051Z,1005.71
2016-06-25T11:07:16.045Z,1005.69
2016-06-25T11:08:16.025Z,1005.72
2016-06-25T11:09:16.017Z,1005.67
2016-06-25T11:10:16.007Z,1005.68
2016-06-25T11:11:15.993Z,1005.68
2016-06-25T11:13:16.001Z,1005.65
2016-06-25T11:14:15.970Z,1005.64
2016-06-25T11:15:15.955Z,1005.67
2016-06-25T11:16:15.944Z,1005.62
2016-06-25T11:17:15.943Z,1005.65
2016-06-25T11:18:15.943Z,1005.63
2016-06-25T11:19:15.922Z,1005.67
2016-06-25T11:20:15.904Z,1005.64
2016-06-25T11:21:15.898Z,1005.64
2016-06-25T11:22:15.896Z,1005.62
2016-06-25T11:23:15.879Z,1005.63
2016-06-25T11:24:15.873Z,1005.59
2016-06-25T11:25:15.857Z,1005.59
2016-06-25T11:26:15.850Z,1005.57
2016-06-25T11:27:15.843Z,1005.57
2016-06-25T11:28:15.825Z,1005.57
2016-06-25T11:29:15.819Z,1005.57
2016-06-25T11:30:15.812Z,1005.54
2016-06-25T11:31:15.799Z,1005.51
2016-06-25T11:32:15.800Z,1005.52
2016-06-25T11:33:15.777Z,1005.45
2016-06-25T11:34:15.769Z,1005.45
2016-06-25T11:35:15.761Z,1005.47
2016-06-25T11:36:15.747Z,1005.46
2016-06-25T11:37:15.738Z,1005.48
2016-06-25T11:38:15.730Z,1005.41
2016-06-25T11:39:15.728Z,1005.46
2016-06-25T11:40:15.710Z,1005.45
2016-06-25T11:41:15.701Z,1005.44
2016-06-25T11:42:15.685Z,1005.44
2016-06-25T11:43:15.678Z,1005.45
2016-06-25T11:44:15.669Z,1005.45
2016-06-25T11:45:15.659Z,1005.46
2016-06-25T11:46:15.648Z,1005.46
2016-06-25T11:47:15.643Z,1005.45
2016-06-25T11:48:15.631Z,1005.44
2016-06-25T11:49:15.616Z,1005.43
2016-06-25T11:50:15.615Z,1005.44
2016-06-25T11:51:15.603Z,1005.42
2016-06-25T11:52:15.587Z,1005.39
2016-06-25T11:53:15.581Z,1005.39
2016-06-25T11:54:15.576Z,1005.42
2016-06-25T11:55:15.569Z,1005.4
2016-06-25T11:56:15.553Z,1005.39
2016-06-25T11:57:15.742Z,1005.41
2016-06-25T11:58:15.528Z,1005.37
2016-06-25T11:59:15.517Z,1005.4
2016-06-25T12:00:15.513Z,1005.4
2016-06-25T12:01:15.509Z,1005.4
2016-06-25T12:02:15.494Z,1005.4
2016-06-25T12:03:15.481Z,1005.42
2016-06-25T12:04:15.468Z,1005.38
2016-06-25T12:05:15.467Z,1005.37
2016-06-25T12:06:15.658Z,1005.38
2016-06-25T12:07:15.459Z,1005.39
2016-06-25T12:08:15.434Z,1005.38
2016-06-25T12:09:15.425Z,1005.39